Time;durP1;ratioP1;P1;durP2;ratioP2;P2;SDS_P1;SDS_P2;PMS_P1;PMS_P2;Temp;Humidity;BMP_temperature;BMP_pressure;BME280_temperature;BME280_humidity;BME280_pressure;Samples;Min_cycle;Max_cycle;Signal;HPM_P1;HPM_P2
2022/09/26 00:02:48;;;;;;;16.80;12.07;;;;;;;10.96;80.14;99408.24;2118633;82;21060;-81
2022/09/26 00:05:49;;;;;;;16.62;11.60;;;;;;;10.93;80.19;99404.64;2123507;82;21122;-80
2022/09/26 00:08:51;;;;;;;16.17;11.08;;;;;;;10.86;80.22;99405.05;2045864;85;21528;-79
2022/09/26 00:11:53;;;;;;;14.03;10.65;;;;;;;10.79;80.31;99398.85;2115667;82;21087;-79
2022/09/26 00:14:54;;;;;;;14.63;10.88;;;;;;;10.72;80.12;99395.59;2114374;82;21022;-78
2022/09/26 00:17:55;;;;;;;18.80;11.75;;;;;;;10.62;79.79;99391.60;2111123;82;21683;-78
2022/09/26 00:21:06;;;;;;;17.42;11.25;;;;;;;10.53;79.59;99389.52;2099036;83;21126;-78
2022/09/26 00:24:08;;;;;;;22.00;14.40;;;;;;;10.41;79.80;99387.02;2110701;82;21025;-80
2022/09/26 00:27:09;;;;;;;19.65;13.78;;;;;;;10.28;80.08;99387.17;2052872;85;21618;-77
2022/09/26 00:30:11;;;;;;;22.37;14.18;;;;;;;10.16;80.52;99385.92;2068341;85;21483;-81
2022/09/26 00:33:12;;;;;;;24.00;14.90;;;;;;;10.05;80.60;99383.72;2060336;84;21127;-78
2022/09/26 00:36:13;;;;;;;19.50;13.35;;;;;;;9.98;80.89;99378.84;2065711;85;21119;-79
2022/09/26 00:39:15;;;;;;;17.27;12.37;;;;;;;9.96;80.66;99382.16;2053526;84;21125;-77
2022/09/26 00:42:16;;;;;;;15.55;11.93;;;;;;;9.90;80.23;99381.56;2057699;85;21168;-79
2022/09/26 00:45:18;;;;;;;16.10;10.85;;;;;;;9.82;80.21;99379.30;2091374;83;21134;-79
2022/09/26 00:48:20;;;;;;;16.75;11.90;;;;;;;9.79;80.36;99383.64;2097384;82;21073;-80
2022/09/26 00:51:21;;;;;;;17.62;11.10;;;;;;;9.79;80.86;99375.69;2096527;83;21054;-79
2022/09/26 00:54:25;;;;;;;15.55;11.12;;;;;;;9.78;80.72;99372.73;2094480;82;21086;-79
2022/09/26 00:57:40;;;;;;;14.68;10.13;;;;;;;9.79;80.46;99369.57;2056018;85;21197;-81
2022/09/26 01:00:44;;;;;;;18.75;10.18;;;;;;;9.80;80.79;99365.94;2065934;84;21050;-79
2022/09/26 01:03:48;;;;;;;14.90;7.62;;;;;;;9.81;80.67;99363.09;2043514;85;21024;-78
2022/09/26 01:06:49;;;;;;;13.25;8.90;;;;;;;9.62;81.10;99335.28;2048999;85;21093;-78
2022/09/26 01:09:52;;;;;;;15.65;8.45;;;;;;;9.62;81.10;99335.28;2041285;84;21587;-81
2022/09/26 01:12:56;;;;;;;9.43;7.50;;;;;;;9.74;80.58;99352.91;2051526;85;21157;-78
2022/09/26 01:15:57;;;;;;;11.78;8.13;;;;;;;9.72;80.12;99357.56;2031511;85;21191;-78
2022/09/26 01:19:06;;;;;;;12.58;7.25;;;;;;;9.70;80.02;99345.49;2034384;84;21065;-78
2022/09/26 01:22:50;;;;;;;15.63;8.25;;;;;;;9.60;79.97;99333.81;2092714;83;21031;-78
2022/09/26 01:26:29;;;;;;;13.13;7.60;;;;;;;9.52;79.98;99329.43;2091831;82;21109;-79
2022/09/26 01:30:08;;;;;;;12.98;6.75;;;;;;;9.52;79.98;99329.43;2117140;82;21167;-79
2022/09/26 01:33:28;;;;;;;8.13;6.37;;;;;;;9.49;79.07;99348.33;2106925;83;21666;-78
2022/09/26 01:37:09;;;;;;;11.63;7.33;;;;;;;9.40;78.96;99343.60;2108713;83;21528;-78
2022/09/26 01:40:22;;;;;;;11.15;8.50;;;;;;;9.29;79.03;99340.05;2111459;82;21144;-78
2022/09/26 01:43:41;;;;;;;15.32;8.55;;;;;;;9.23;79.43;99334.11;2108150;82;21049;-78
2022/09/26 01:47:00;;;;;;;11.33;6.85;;;;;;;9.13;79.14;99326.93;2065659;84;21066;-79
2022/09/26 01:50:18;;;;;;;8.68;6.80;;;;;;;9.01;78.79;99319.91;2049319;84;21075;-79
2022/09/26 01:53:40;;;;;;;10.58;7.87;;;;;;;8.89;78.55;99322.61;2032011;85;21107;-77
2022/09/26 01:56:45;;;;;;;16.93;8.35;;;;;;;8.82;79.11;99323.82;2024971;85;21118;-81
2022/09/26 01:59:52;;;;;;;38.30;10.90;;;;;;;8.76;79.22;99319.23;2030853;85;21531;-78
2022/09/26 02:02:55;;;;;;;28.35;10.68;;;;;;;8.67;79.78;99326.40;2115111;82;21039;-78
2022/09/26 02:06:10;;;;;;;27.80;10.25;;;;;;;8.61;79.99;99319.12;2123196;82;21630;-78
2022/09/26 02:09:19;;;;;;;19.92;11.10;;;;;;;8.53;79.78;99315.20;2114018;83;21063;-78
2022/09/26 02:12:31;;;;;;;25.77;10.43;;;;;;;8.45;79.93;99322.70;2110018;82;21027;-78
2022/09/26 02:15:36;;;;;;;19.67;10.08;;;;;;;8.33;79.94;99320.56;2119464;82;21042;-78
2022/09/26 02:18:42;;;;;;;17.05;11.10;;;;;;;8.26;80.40;99321.75;2103419;82;21090;-81
2022/09/26 02:21:43;;;;;;;19.07;10.93;;;;;;;8.21;80.30;99318.80;2095287;83;21783;-78
2022/09/26 02:24:45;;;;;;;22.80;10.85;;;;;;;8.17;80.24;99313.53;2109954;83;21123;-77
2022/09/26 02:27:48;;;;;;;15.05;10.82;;;;;;;8.11;79.98;99315.52;2089486;83;21087;-77
2022/09/26 02:30:53;;;;;;;15.40;9.73;;;;;;;8.09;80.19;99305.14;2109121;83;21639;-77
2022/09/26 02:33:56;;;;;;;17.10;9.85;;;;;;;8.04;80.13;99303.49;2103827;83;21049;-77
2022/09/26 02:37:00;;;;;;;14.20;9.73;;;;;;;8.00;80.11;99301.70;2100698;83;21049;-76
2022/09/26 02:40:03;;;;;;;14.85;10.63;;;;;;;7.93;79.79;99302.53;2121516;83;21080;-77
2022/09/26 02:43:25;;;;;;;17.12;12.28;;;;;;;7.90;80.44;99303.70;2083641;82;21094;-78
2022/09/26 02:47:07;;;;;;;15.70;10.80;;;;;;;7.89;80.66;99306.02;2085604;83;21047;-78
2022/09/26 02:50:19;;;;;;;12.33;9.70;;;;;;;7.88;81.14;99304.86;2096309;83;20997;-78
2022/09/26 02:54:12;;;;;;;15.88;10.35;;;;;;;7.80;81.04;99303.90;2098345;83;21158;-78
2022/09/26 02:57:38;;;;;;;10.93;9.20;;;;;;;7.77;80.68;99299.42;2092590;83;21531;-78
2022/09/26 03:01:00;;;;;;;14.43;9.65;;;;;;;7.72;80.47;99295.99;2104863;83;21029;-81
2022/09/26 03:04:22;;;;;;;18.37;9.90;;;;;;;7.70;80.61;99293.19;2094826;83;21110;-78
2022/09/26 03:07:38;;;;;;;14.30;10.05;;;;;;;7.63;80.65;99286.45;2089207;83;21654;-76
2022/09/26 03:10:41;;;;;;;15.05;10.45;;;;;;;7.51;80.65;99281.98;2089815;82;21141;-77
2022/09/26 03:13:44;;;;;;;17.52;9.70;;;;;;;7.46;80.96;99280.84;2104901;83;21145;-77
2022/09/26 03:16:46;;;;;;;15.10;11.73;;;;;;;7.43;80.98;99283.31;2113724;82;21057;-76
2022/09/26 03:19:56;;;;;;;18.62;12.00;;;;;;;7.40;81.07;99279.69;2102491;82;21021;-77
2022/09/26 03:22:57;;;;;;;14.23;10.50;;;;;;;7.38;81.68;99274.59;2117799;83;21003;-77
2022/09/26 03:26:09;;;;;;;16.52;11.15;;;;;;;7.39;81.71;99275.41;2107781;82;21088;-77
2022/09/26 03:29:11;;;;;;;15.18;10.60;;;;;;;7.43;81.84;99277.22;2087841;82;21076;-76
2022/09/26 03:32:12;;;;;;;14.90;10.25;;;;;;;7.40;81.57;99270.45;2116833;83;21037;-76
2022/09/26 03:35:14;;;;;;;12.23;9.73;;;;;;;7.39;81.29;99270.95;2116974;82;21068;-77
2022/09/26 03:38:15;;;;;;;11.50;8.53;;;;;;;7.39;81.16;99266.17;2050980;86;21000;-77
2022/09/26 03:41:18;;;;;;;16.93;10.05;;;;;;;7.35;80.99;99275.43;2048696;86;21055;-75
2022/09/26 03:44:37;;;;;;;14.10;9.55;;;;;;;7.34;80.91;99268.48;2096369;83;21557;-80
2022/09/26 03:47:38;;;;;;;17.15;9.55;;;;;;;7.34;80.91;99267.16;2098504;83;21044;-77
2022/09/26 03:50:39;;;;;;;15.95;9.60;;;;;;;7.34;80.70;99264.52;2103730;82;21072;-77
2022/09/26 03:53:43;;;;;;;21.17;9.18;;;;;;;7.30;80.69;99259.27;2112408;82;21031;-77
2022/09/26 03:56:46;;;;;;;16.35;11.20;;;;;;;7.27;80.75;99257.78;2094004;83;21412;-76
2022/09/26 03:59:48;;;;;;;18.50;10.65;;;;;;;7.24;80.92;99250.20;2112245;83;21085;-77
2022/09/26 04:02:50;;;;;;;13.98;9.40;;;;;;;7.26;81.03;99251.34;2099444;83;21175;-76
2022/09/26 04:05:53;;;;;;;12.05;8.88;;;;;;;7.26;81.03;99250.84;2094779;83;21110;-76
2022/09/26 04:08:55;;;;;;;15.38;9.30;;;;;;;7.23;80.81;99246.39;2104541;83;21032;-77
2022/09/26 04:11:56;;;;;;;10.65;7.92;;;;;;;7.19;81.03;99243.27;2111246;82;21081;-76
2022/09/26 04:14:57;;;;;;;12.55;9.10;;;;;;;7.18;80.98;99239.81;2122094;82;21065;-76
2022/09/26 04:17:59;;;;;;;19.02;9.88;;;;;;;7.19;81.04;99238.81;2102914;82;20981;-76
2022/09/26 04:21:05;;;;;;;12.90;8.18;;;;;;;7.22;81.25;99231.06;2105310;83;21049;-77
2022/09/26 04:24:15;;;;;;;14.15;8.75;;;;;;;7.24;81.10;99233.55;2058774;84;21038;-77
2022/09/26 04:27:17;;;;;;;14.80;8.75;;;;;;;7.21;80.92;99235.17;2053356;84;21137;-76
2022/09/26 04:30:21;;;;;;;16.62;8.15;;;;;;;7.18;80.89;99235.05;2039220;84;21518;-79
2022/09/26 04:33:24;;;;;;;14.58;9.78;;;;;;;7.16;80.92;99240.47;2046667;85;21094;-74
2022/09/26 04:36:31;;;;;;;16.62;10.68;;;;;;;7.19;81.22;99229.58;2038007;84;21106;-75
2022/09/26 04:39:34;;;;;;;15.23;10.68;;;;;;;7.16;81.36;99231.23;2112627;83;21050;-77
2022/09/26 04:42:35;;;;;;;16.40;10.50;;;;;;;7.05;81.43;99222.84;2102438;82;22186;-75
2022/09/26 04:45:42;;;;;;;24.05;11.63;;;;;;;6.99;81.74;99219.05;2082442;83;21593;-75
2022/09/26 04:48:43;;;;;;;27.42;15.80;;;;;;;6.97;81.91;99222.34;2105441;83;21773;-76
2022/09/26 04:51:47;;;;;;;26.37;15.48;;;;;;;6.91;82.08;99213.27;2108009;83;21089;-73
2022/09/26 04:54:48;;;;;;;17.62;12.73;;;;;;;6.97;82.45;99224.98;2107910;83;21096;-79
2022/09/26 04:57:50;;;;;;;16.90;11.93;;;;;;;7.03;82.39;99222.17;2096103;83;20986;-72
2022/09/26 05:00:51;;;;;;;23.60;14.20;;;;;;;7.06;82.30;99220.52;2096718;83;21071;-75
2022/09/26 05:03:55;;;;;;;24.67;14.93;;;;;;;7.09;82.40;99222.32;2093837;82;21044;-72
2022/09/26 05:06:58;;;;;;;23.25;14.85;;;;;;;7.12;82.61;99232.57;2108696;82;21573;-87
2022/09/26 05:10:01;;;;;;;21.87;15.10;;;;;;;7.16;82.84;99230.42;2089543;83;21583;-76
2022/09/26 05:13:04;;;;;;;32.73;17.12;;;;;;;7.20;83.01;99229.08;2108619;83;21133;-76
2022/09/26 05:16:10;;;;;;;22.15;14.75;;;;;;;7.24;83.01;99225.64;2098074;83;21804;-75
2022/09/26 05:19:13;;;;;;;23.90;14.98;;;;;;;7.26;83.14;99221.81;2112504;82;21642;-75
2022/09/26 05:22:15;;;;;;;22.22;15.75;;;;;;;7.34;83.27;99220.98;2076551;83;22430;-75
2022/09/26 05:28:36;;;;;;;26.90;18.05;;;;;;;7.53;83.53;99220.61;2013577;86;21084;-75
2022/09/26 05:31:38;;;;;;;26.35;19.17;;;;;;;7.79;84.10;99216.91;2064338;84;21176;-75
2022/09/26 05:34:39;;;;;;;25.75;17.87;;;;;;;8.31;84.65;99214.52;2035408;84;21078;-75
2022/09/26 05:37:42;;;;;;;23.40;17.80;;;;;;;8.84;84.63;99217.34;2051331;84;21130;-75
2022/09/26 05:40:55;;;;;;;27.75;17.17;;;;;;;9.33;84.52;99220.87;2072301;84;21054;-76
2022/09/26 05:43:57;;;;;;;21.70;14.85;;;;;;;9.73;84.26;99230.70;2086717;83;21539;-75
2022/09/26 05:46:59;;;;;;;16.93;12.55;;;;;;;9.94;83.44;99227.34;2056686;84;21050;-75
2022/09/26 05:50:08;;;;;;;24.47;15.28;;;;;;;10.00;83.04;99227.10;2052644;84;21112;-75
2022/09/26 05:53:09;;;;;;;18.23;12.88;;;;;;;10.01;82.82;99222.11;2078476;84;21122;-75
2022/09/26 05:56:13;;;;;;;16.02;12.88;;;;;;;9.98;82.55;99213.20;2039720;85;21835;-75
2022/09/26 05:59:17;;;;;;;15.50;12.40;;;;;;;9.99;82.66;99222.79;2010023;85;21167;-77
2022/09/26 06:02:23;;;;;;;16.48;13.32;;;;;;;9.97;82.59;99220.84;2033539;85;21653;-75
2022/09/26 06:05:27;;;;;;;16.67;11.70;;;;;;;10.04;82.61;99227.03;2045451;85;21074;-75
2022/09/26 06:08:48;;;;;;;16.10;11.93;;;;;;;10.05;82.64;99222.05;2044969;85;21076;-75
2022/09/26 06:11:52;;;;;;;17.80;11.63;;;;;;;10.11;82.84;99223.98;2018385;86;21115;-74
2022/09/26 06:14:53;;;;;;;18.85;13.80;;;;;;;10.18;82.93;99224.86;2043182;85;21057;-75
2022/09/26 06:18:00;;;;;;;19.12;13.38;;;;;;;10.24;83.07;99230.74;2037936;85;21084;-75
2022/09/26 06:21:08;;;;;;;23.60;16.27;;;;;;;10.25;83.14;99219.15;2038799;84;21069;-75
2022/09/26 06:24:12;;;;;;;19.30;14.58;;;;;;;10.40;83.51;99219.64;2028639;84;21118;-76
2022/09/26 06:27:14;;;;;;;22.27;15.43;;;;;;;10.62;83.30;99217.33;2038612;86;21046;-76
2022/09/26 06:30:16;;;;;;;17.55;14.38;;;;;;;10.70;83.61;99222.52;2047708;85;21097;-75
2022/09/26 06:33:17;;;;;;;20.37;15.10;;;;;;;10.70;83.61;99222.52;2073758;83;21073;-78
2022/09/26 06:36:33;;;;;;;20.05;16.17;;;;;;;10.80;83.93;99218.72;2100144;82;21533;-76
2022/09/26 06:39:36;;;;;;;20.57;14.65;;;;;;;10.88;83.87;99221.24;2095578;83;21048;-75
2022/09/26 06:42:40;;;;;;;17.48;14.03;;;;;;;11.01;84.12;99225.35;2105697;83;21100;-75
2022/09/26 06:45:52;;;;;;;19.42;14.58;;;;;;;11.01;84.12;99225.35;2088880;83;21397;-75
2022/09/26 06:48:55;;;;;;;23.95;14.90;;;;;;;11.06;83.56;99218.12;2093526;83;21060;-75
2022/09/26 06:51:58;;;;;;;16.25;14.30;;;;;;;11.09;83.88;99216.41;2080797;83;21090;-76
2022/09/26 06:55:02;;;;;;;16.95;15.13;;;;;;;11.09;83.88;99216.41;2101386;82;21145;-75
2022/09/26 06:58:04;;;;;;;22.95;16.30;;;;;;;11.08;83.89;99214.27;2100169;83;21581;-75
2022/09/26 07:01:07;;;;;;;19.25;15.83;;;;;;;11.09;83.66;99226.52;2106636;82;21699;-75
2022/09/26 07:04:26;;;;;;;19.25;15.48;;;;;;;11.07;83.97;99219.78;2110242;82;21080;-75
2022/09/26 07:07:41;;;;;;;18.12;14.90;;;;;;;11.11;84.14;99220.52;2118246;82;21100;-74
2022/09/26 07:10:45;;;;;;;22.35;16.32;;;;;;;11.14;84.16;99221.45;2102798;83;21124;-75
2022/09/26 07:13:49;;;;;;;21.65;16.62;;;;;;;11.16;84.19;99223.42;2081543;83;21140;-77
2022/09/26 07:16:51;;;;;;;20.20;15.40;;;;;;;11.16;84.28;99231.90;2109668;83;21050;-75
2022/09/26 07:20:01;;;;;;;20.40;15.80;;;;;;;11.19;84.36;99231.52;2102459;82;21000;-75
2022/09/26 07:23:21;;;;;;;;;;;;;;;11.17;84.26;99227.70;2072695;83;21148;-75
2022/09/26 07:26:23;;;;;;;23.00;16.07;;;;;;;11.19;84.43;99237.63;2094245;83;20221;-75
2022/09/26 07:29:25;;;;;;;19.48;16.87;;;;;;;11.20;84.54;99233.95;2054754;84;21673;-74
2022/09/26 07:32:30;;;;;;;23.50;17.37;;;;;;;11.20;84.58;99226.50;2065237;84;21172;-74
2022/09/26 07:35:47;;;;;;;21.60;17.15;;;;;;;11.25;84.69;99229.92;2115944;82;21107;-76
2022/09/26 07:38:49;;;;;;;21.62;17.98;;;;;;;11.24;84.82;99225.13;2116878;82;21507;-75
2022/09/26 07:41:52;;;;;;;26.33;19.12;;;;;;;11.24;84.83;99225.63;2114455;82;21092;-75
2022/09/26 07:44:53;;;;;;;28.83;21.45;;;;;;;11.30;84.94;99225.67;2116546;82;21592;-74
2022/09/26 07:51:35;;;;;;;28.52;22.05;;;;;;;11.38;85.01;99226.05;2117916;82;21073;-75
2022/09/26 07:54:39;;;;;;;27.45;21.35;;;;;;;11.42;85.12;99226.77;2112358;82;21549;-76
2022/09/26 07:57:58;;;;;;;24.90;22.07;;;;;;;11.46;85.14;99217.93;2107587;82;21093;-74
2022/09/26 08:01:02;;;;;;;27.52;21.00;;;;;;;11.52;85.19;99219.80;2124793;82;21085;-77
2022/09/26 08:04:21;;;;;;;26.80;21.23;;;;;;;11.55;85.27;99215.42;2043232;85;21046;-75
2022/09/26 08:07:23;;;;;;;29.85;20.60;;;;;;;11.59;85.41;99214.52;2099236;82;21173;-74
2022/09/26 08:10:26;;;;;;;27.30;22.22;;;;;;;11.63;85.38;99218.45;2107660;83;21045;-75
2022/09/26 08:13:47;;;;;;;26.62;21.87;;;;;;;11.73;85.67;99215.42;2112904;82;21113;-74
2022/09/26 08:16:54;;;;;;;27.60;20.52;;;;;;;11.80;85.74;99208.31;2037876;85;21647;-75
2022/09/26 08:19:56;;;;;;;25.95;21.62;;;;;;;11.91;85.80;99220.23;2045000;84;21078;-75
2022/09/26 08:22:57;;;;;;;25.15;21.45;;;;;;;12.06;85.87;99218.28;2041579;85;21120;-75
2022/09/26 08:26:06;;;;;;;28.62;21.68;;;;;;;12.25;86.03;99219.38;2048463;85;21563;-76
2022/09/26 08:29:10;;;;;;;24.45;21.00;;;;;;;12.47;86.03;99214.72;2101785;82;21019;-75
2022/09/26 08:32:11;;;;;;;22.73;19.75;;;;;;;12.71;85.93;99218.67;2109707;82;21052;-76
2022/09/26 08:35:13;;;;;;;20.23;18.00;;;;;;;12.93;85.75;99220.12;2092656;83;21057;-76
2022/09/26 08:38:17;;;;;;;20.88;17.05;;;;;;;13.26;85.72;99217.18;2102370;82;21520;-75
2022/09/26 08:41:41;;;;;;;21.17;16.67;;;;;;;13.68;85.29;99204.73;2100241;83;21493;-75
2022/09/26 08:49:24;;;;;;;20.88;16.97;;;;;;;14.01;83.72;99205.12;2087528;83;21627;-74
2022/09/26 08:52:37;;;;;;;18.23;15.93;;;;;;;14.13;83.61;99200.78;2111557;83;21014;-74
2022/09/26 08:55:44;;;;;;;18.65;16.62;;;;;;;14.33;83.21;99206.02;2102969;83;21515;-75
2022/09/26 08:58:50;;;;;;;20.92;16.97;;;;;;;14.53;82.80;99203.80;2104939;83;21006;-74
2022/09/26 09:01:58;;;;;;;17.95;14.78;;;;;;;14.74;82.25;99202.63;2106177;82;21688;-74
2022/09/26 09:05:25;;;;;;;17.73;15.78;;;;;;;14.94;82.18;99198.47;2086353;83;21015;-75
2022/09/26 09:08:49;;;;;;;21.90;16.27;;;;;;;15.06;81.39;99204.73;2094696;83;21036;-75
2022/09/26 09:12:12;;;;;;;18.62;16.55;;;;;;;15.52;81.61;99200.84;2101291;83;21096;-75
2022/09/26 09:16:02;;;;;;;17.23;15.43;;;;;;;15.84;80.24;99192.70;2095873;83;21087;-75
2022/09/26 09:20:03;;;;;;;21.12;16.90;;;;;;;15.82;79.11;99192.91;1991411;86;21153;-75
2022/09/26 09:23:51;;;;;;;21.30;17.10;;;;;;;15.79;79.11;99196.56;2004075;85;21755;-77
2022/09/26 09:27:09;;;;;;;18.32;15.45;;;;;;;15.84;79.05;99200.20;2023295;84;21128;-76
2022/09/26 09:30:31;;;;;;;20.37;15.18;;;;;;;15.96;78.60;99193.58;2104073;83;21143;-79
2022/09/26 09:33:48;;;;;;;18.42;14.63;;;;;;;16.07;78.50;99192.83;2098784;82;21050;-77
2022/09/26 09:37:03;;;;;;;13.50;12.10;;;;;;;16.10;78.16;99187.02;2089911;83;21014;-75
2022/09/26 09:40:35;;;;;;;15.00;13.18;;;;;;;15.99;77.44;99187.78;2113199;83;21095;-75
2022/09/26 09:43:41;;;;;;;17.77;14.47;;;;;;;15.84;77.16;99198.86;2102180;83;21711;-77
2022/09/26 09:46:42;;;;;;;20.08;13.62;;;;;;;15.78;77.34;99197.61;2109042;83;21069;-76
2022/09/26 09:49:47;;;;;;;17.20;14.03;;;;;;;15.77;76.91;99207.99;2080343;83;21156;-76
2022/09/26 09:53:15;;;;;;;16.93;14.40;;;;;;;15.69;76.88;99207.27;2109650;83;21095;-76
2022/09/26 09:56:39;;;;;;;15.23;13.58;;;;;;;15.64;76.74;99212.42;2098363;83;21049;-76
2022/09/26 10:00:08;;;;;;;18.62;14.65;;;;;;;15.54;76.42;99204.12;2045552;84;21053;-75
2022/09/26 10:03:38;;;;;;;19.70;15.10;;;;;;;15.51;76.63;99198.38;2107676;83;21743;-77
2022/09/26 10:06:40;;;;;;;17.00;14.15;;;;;;;15.56;76.62;99204.69;2098963;82;21034;-77
2022/09/26 10:09:43;;;;;;;18.23;14.65;;;;;;;15.57;76.42;99200.16;2099824;83;21101;-75
2022/09/26 10:13:02;;;;;;;18.17;14.55;;;;;;;15.49;76.20;99201.80;2031832;85;21086;-76
2022/09/26 10:16:23;;;;;;;17.42;15.63;;;;;;;15.43;76.24;99206.18;2113954;83;21588;-76
2022/09/26 10:19:36;;;;;;;18.67;15.48;;;;;;;15.35;76.28;99207.80;2099163;83;21017;-76
2022/09/26 10:22:47;;;;;;;15.98;13.78;;;;;;;15.25;76.24;99212.28;2117276;82;21089;-76
2022/09/26 10:25:52;;;;;;;16.40;13.78;;;;;;;15.15;76.12;99210.64;2103911;82;21037;-78
2022/09/26 10:28:56;;;;;;;15.58;13.50;;;;;;;15.04;76.16;99206.02;2115135;83;21131;-76
2022/09/26 10:31:59;;;;;;;15.48;13.88;;;;;;;14.88;76.01;99207.35;2107483;83;21105;-77
2022/09/26 10:35:20;;;;;;;19.60;15.30;;;;;;;14.73;76.18;99213.83;2103862;83;21070;-76
2022/09/26 10:38:26;;;;;;;19.05;14.10;;;;;;;14.67;76.58;99209.34;2090316;83;21125;-76
2022/09/26 10:41:46;;;;;;;17.02;14.80;;;;;;;14.71;76.71;99207.87;2099856;83;22316;-76
2022/09/26 10:44:49;;;;;;;18.05;14.80;;;;;;;14.72;76.68;99200.67;2099643;83;21171;-76
2022/09/26 10:47:58;;;;;;;18.27;14.87;;;;;;;14.72;76.74;99205.49;2111175;83;21517;-76
2022/09/26 10:51:28;;;;;;;19.60;16.12;;;;;;;14.72;76.66;99207.34;2101498;83;21077;-77
2022/09/26 10:54:43;;;;;;;17.27;15.40;;;;;;;14.72;76.82;99210.83;2098663;83;21037;-77
2022/09/26 10:57:57;;;;;;;16.95;15.23;;;;;;;14.83;77.11;99207.17;2108493;83;21060;-77
2022/09/26 11:01:00;;;;;;;18.10;15.48;;;;;;;14.91;77.06;99214.93;2060700;84;21021;-76
2022/09/26 11:08:09;;;;;;;19.87;15.90;;;;;;;14.83;76.67;99201.84;1991937;87;21134;-77
2022/09/26 11:11:16;;;;;;;16.75;14.95;;;;;;;14.78;76.93;99197.98;2035024;85;21530;-76
2022/09/26 11:14:29;;;;;;;18.90;16.75;;;;;;;14.77;76.58;99196.32;2066007;84;21559;-77
2022/09/26 11:17:48;;;;;;;21.85;16.60;;;;;;;14.70;76.70;99199.57;2027714;85;21073;-77
2022/09/26 11:20:54;;;;;;;19.73;17.42;;;;;;;14.68;76.62;99202.97;2065409;84;21046;-77
2022/09/26 11:24:27;;;;;;;18.98;16.95;;;;;;;14.68;76.61;99200.30;2097696;84;21037;-77
2022/09/26 11:27:45;;;;;;;22.40;18.23;;;;;;;14.82;76.77;99201.55;2083834;84;21083;-77
2022/09/26 11:30:55;;;;;;;18.95;16.10;;;;;;;14.84;76.35;99196.30;2058123;84;21038;-76
2022/09/26 11:34:02;;;;;;;19.35;16.00;;;;;;;14.82;76.37;99194.34;2058704;84;21185;-76
2022/09/26 11:37:20;;;;;;;17.77;15.88;;;;;;;14.85;76.21;99187.76;2080693;84;21709;-76
2022/09/26 11:40:27;;;;;;;17.62;15.80;;;;;;;14.81;76.08;99188.72;2056613;84;21151;-76
2022/09/26 11:43:51;;;;;;;21.00;17.05;;;;;;;14.67;75.84;99193.33;2064434;83;21096;-76
2022/09/26 11:47:09;;;;;;;20.48;18.37;;;;;;;14.61;75.98;99195.50;2082648;83;21595;-76
2022/09/26 11:50:34;;;;;;;19.80;16.52;;;;;;;14.57;76.23;99188.97;2091550;83;21528;-76
2022/09/26 11:54:09;;;;;;;21.45;18.48;;;;;;;14.55;76.38;99193.70;2071888;83;21143;-77
2022/09/26 11:57:52;;;;;;;20.75;17.12;;;;;;;14.56;76.48;99191.34;2024113;85;21088;-77
2022/09/26 12:01:22;;;;;;;19.48;17.05;;;;;;;14.65;76.62;99188.72;2056131;85;21582;-77
2022/09/26 12:04:58;;;;;;;20.70;16.90;;;;;;;14.65;76.38;99182.56;2097183;83;21035;-76
2022/09/26 12:08:12;;;;;;;20.77;16.40;;;;;;;14.66;76.44;99182.33;2101129;83;21314;-78
2022/09/26 12:11:36;;;;;;;21.35;17.60;;;;;;;14.56;76.45;99178.81;2111887;83;21047;-76
2022/09/26 12:15:19;;;;;;;18.73;16.73;;;;;;;14.53;76.48;99177.91;2079796;83;21072;-76
2022/09/26 12:18:52;;;;;;;18.48;16.48;;;;;;;14.41;76.37;99175.58;2107501;82;21118;-76
2022/09/26 12:22:31;;;;;;;17.65;15.40;;;;;;;14.40;76.60;99170.47;2098814;83;21066;-76
2022/09/26 12:26:02;;;;;;;18.00;15.63;;;;;;;14.34;76.67;99162.28;2101054;83;21170;-76
2022/09/26 12:29:39;;;;;;;18.87;15.70;;;;;;;14.29;76.45;99163.95;2095451;83;21135;-75
2022/09/26 12:32:58;;;;;;;19.98;16.65;;;;;;;14.22;76.50;99170.67;2103938;83;21077;-76
2022/09/26 12:36:21;;;;;;;20.25;16.07;;;;;;;14.13;76.62;99170.11;2110031;83;21074;-75
2022/09/26 12:39:46;;;;;;;17.70;15.38;;;;;;;14.01;77.11;99161.11;2103402;83;21009;-75
2022/09/26 12:43:05;;;;;;;15.38;13.35;;;;;;;13.87;77.48;99163.02;2097134;83;21022;-75
2022/09/26 12:46:33;;;;;;;15.48;13.83;;;;;;;13.79;77.66;99161.11;2111616;82;21139;-76
2022/09/26 12:50:04;;;;;;;18.00;14.95;;;;;;;13.82;78.03;99159.34;2048087;85;21106;-75
2022/09/26 12:53:38;;;;;;;18.90;15.25;;;;;;;13.81;78.18;99162.53;2048500;85;21071;-75
2022/09/26 12:57:01;;;;;;;18.05;14.03;;;;;;;13.87;78.17;99155.02;2116340;83;21105;-77
2022/09/26 13:00:19;;;;;;;16.23;13.93;;;;;;;13.94;78.35;99149.67;2087716;83;21053;-76
2022/09/26 13:03:37;;;;;;;14.53;12.75;;;;;;;13.94;78.27;99147.50;2114614;83;21006;-73
2022/09/26 13:07:07;;;;;;;12.58;10.88;;;;;;;13.87;78.31;99148.35;2100284;82;21104;-75
2022/09/26 13:10:32;;;;;;;13.30;11.38;;;;;;;13.84;78.42;99143.97;2094367;83;21033;-75
2022/09/26 13:14:03;;;;;;;16.25;11.00;;;;;;;13.88;78.60;99143.83;2064307;84;21091;-75
2022/09/26 13:17:18;;;;;;;14.87;10.90;;;;;;;13.90;78.54;99127.92;2053943;85;21643;-77
2022/09/26 13:20:28;;;;;;;16.50;12.82;;;;;;;13.90;78.42;99123.11;2042619;85;21051;-75
2022/09/26 13:23:47;;;;;;;17.30;13.25;;;;;;;14.01;78.69;99130.97;2041391;84;21093;-76
2022/09/26 13:27:00;;;;;;;13.10;10.48;;;;;;;14.15;78.61;99120.52;2059083;85;21107;-76
2022/09/26 13:30:07;;;;;;;10.43;9.18;;;;;;;14.24;78.20;99123.23;2061047;85;21020;-75
2022/09/26 13:33:47;;;;;;;8.83;7.87;;;;;;;14.27;78.09;99126.80;2057295;84;21075;-76
2022/09/26 13:36:50;;;;;;;9.65;8.50;;;;;;;14.27;77.79;99128.66;2044321;85;21050;-77
2022/09/26 13:39:57;;;;;;;11.78;8.95;;;;;;;14.25;77.56;99131.56;2053249;84;21045;-77
2022/09/26 13:43:43;;;;;;;11.18;9.98;;;;;;;14.19;77.47;99128.42;2060952;84;21222;-77
2022/09/26 13:47:27;;;;;;;20.00;13.83;;;;;;;14.13;77.54;99126.09;2063537;85;21005;-76
2022/09/26 13:50:42;;;;;;;25.40;18.25;;;;;;;14.08;77.42;99126.43;2060369;84;21094;-77
2022/09/26 13:54:01;;;;;;;19.85;15.20;;;;;;;14.03;77.68;99123.58;2062953;84;21605;-77
2022/09/26 13:57:24;;;;;;;15.38;12.33;;;;;;;14.03;77.82;99133.73;2046723;84;21574;-76
2022/09/26 14:00:39;;;;;;;16.97;14.23;;;;;;;14.02;77.51;99137.44;1992228;87;21120;-75
2022/09/26 14:03:39;;;;;;;18.70;14.65;;;;;;;14.01;77.67;99137.64;2054216;85;21109;-77
2022/09/26 14:10:34;;;;;;;25.17;15.68;;;;;;;14.01;77.46;99129.63;2057722;85;21102;-76
2022/09/26 14:13:38;;;;;;;19.77;14.05;;;;;;;14.01;77.33;99128.30;2051713;85;21573;-76
2022/09/26 14:16:39;;;;;;;18.55;14.10;;;;;;;13.94;77.22;99127.02;2058458;85;21062;-75
2022/09/26 14:19:47;;;;;;;17.00;12.98;;;;;;;13.86;77.16;99128.06;2058324;85;21056;-76
2022/09/26 14:22:52;;;;;;;15.98;13.15;;;;;;;13.79;76.94;99121.93;2065414;84;21001;-76
2022/09/26 14:25:55;;;;;;;18.92;14.18;;;;;;;13.79;76.92;99117.11;2060365;84;21118;-76
2022/09/26 14:29:29;;;;;;;14.90;12.47;;;;;;;13.79;77.24;99114.45;2050862;85;21574;-71
2022/09/26 14:32:44;;;;;;;15.15;12.25;;;;;;;13.81;77.09;99109.73;2109888;83;21017;-76
2022/09/26 14:35:47;;;;;;;15.48;12.68;;;;;;;13.89;77.24;99109.49;2080883;83;21064;-76
2022/09/26 14:38:50;;;;;;;16.45;12.43;;;;;;;13.92;77.21;99103.73;2102865;83;21018;-76
2022/09/26 14:41:53;;;;;;;14.55;12.37;;;;;;;13.92;77.06;99088.25;2108106;83;21540;-76
2022/09/26 14:44:59;;;;;;;14.65;11.90;;;;;;;13.89;77.13;99084.16;2101599;83;21056;-76
2022/09/26 14:48:27;;;;;;;18.25;13.28;;;;;;;13.92;77.12;99086.92;2096028;83;21062;-76
2022/09/26 14:51:36;;;;;;;14.58;11.73;;;;;;;13.92;77.20;99082.92;2112232;83;21049;-77
2022/09/26 14:54:39;;;;;;;17.77;13.60;;;;;;;13.95;77.14;99076.63;2108737;83;21095;-78
2022/09/26 14:57:41;;;;;;;19.20;11.95;;;;;;;14.04;77.20;99078.53;2108348;83;21077;-77
2022/09/26 15:00:47;;;;;;;12.40;10.65;;;;;;;14.12;77.09;99073.75;2110755;83;21123;-77
2022/09/26 15:04:10;;;;;;;13.78;11.22;;;;;;;14.18;76.79;99073.94;2052852;84;21576;-77
2022/09/26 15:07:24;;;;;;;11.90;10.43;;;;;;;14.20;76.43;99074.54;2115019;83;21522;-78